Time;durP1;ratioP1;P1;durP2;ratioP2;P2;SDS_P1;SDS_P2;PMS_P1;PMS_P2;Temp;Humidity;BMP_temperature;BMP_pressure;BME280_temperature;BME280_humidity;BME280_pressure;Samples;Min_cycle;Max_cycle;Signal;HPM_P1;HPM_P2
2022/10/24 00:01:15;;;;;;;38.40;18.30;;;;;;;6.61;87.90;98269.70;1709762;82;21097;-76
2022/10/24 00:03:42;;;;;;;28.92;17.48;;;;;;;6.63;88.16;98268.35;1705457;84;21586;-76
2022/10/24 00:06:11;;;;;;;27.82;16.65;;;;;;;6.66;87.76;98269.22;1706769;83;20958;-74
2022/10/24 00:08:39;;;;;;;29.23;16.67;;;;;;;6.71;88.10;98270.48;1705692;83;21009;-75
2022/10/24 00:11:16;;;;;;;30.77;17.40;;;;;;;6.80;88.31;98258.97;1667268;84;21044;-85
2022/10/24 00:13:42;;;;;;;;;;;;;;;6.86;88.03;98251.03;1708050;83;20981;-84
2022/10/24 00:16:11;;;;;;;26.82;16.30;;;;;;;6.90;88.08;98252.75;1708427;82;20086;-82
2022/10/24 00:18:39;;;;;;;27.95;16.00;;;;;;;6.91;87.90;98256.23;1705969;84;21020;-81
2022/10/24 00:21:08;;;;;;;28.07;17.20;;;;;;;6.94;88.22;98258.38;1707344;83;21089;-83
2022/10/24 00:23:38;;;;;;;31.75;17.17;;;;;;;7.02;88.38;98260.08;1691254;83;20986;-82
2022/10/24 00:26:06;;;;;;;26.68;15.30;;;;;;;7.06;88.08;98257.38;1639830;87;20990;-82
2022/10/24 00:28:38;;;;;;;26.75;15.63;;;;;;;7.11;87.95;98252.92;1708259;83;21001;-83
2022/10/24 00:31:07;;;;;;;27.50;15.10;;;;;;;7.14;87.99;98249.38;1708328;83;21062;-82
2022/10/24 00:33:36;;;;;;;26.15;16.82;;;;;;;7.15;87.62;98249.84;1708347;83;20989;-82
2022/10/24 00:36:11;;;;;;;24.37;15.60;;;;;;;7.15;87.44;98246.31;1702892;83;21025;-81
2022/10/24 00:38:42;;;;;;;29.90;16.17;;;;;;;7.09;87.40;98251.20;1706540;83;21049;-80
2022/10/24 00:41:22;;;;;;;30.77;16.85;;;;;;;7.06;87.29;98246.84;1688002;84;21000;-81
2022/10/24 00:43:53;;;;;;;31.10;16.27;;;;;;;7.05;87.38;98248.20;1701185;83;21038;-80
2022/10/24 00:46:20;;;;;;;29.90;17.65;;;;;;;7.11;87.94;98241.06;1706192;82;20982;-81
2022/10/24 00:48:51;;;;;;;25.43;15.00;;;;;;;7.10;87.20;98247.23;1709585;83;21116;-80
2022/10/24 00:51:26;;;;;;;24.85;15.25;;;;;;;7.07;87.55;98245.09;1706144;83;20989;-83
2022/10/24 00:54:03;;;;;;;23.60;13.55;;;;;;;7.09;87.63;98243.30;1701404;84;20954;-83
2022/10/24 00:56:35;;;;;;;23.12;14.18;;;;;;;7.09;87.19;98239.34;1713819;82;21077;-82
2022/10/24 00:59:05;;;;;;;21.85;14.13;;;;;;;7.09;87.22;98226.16;1704346;83;21005;-82
2022/10/24 01:01:33;;;;;;;25.27;14.95;;;;;;;7.07;87.19;98225.32;1707403;84;21005;-83
2022/10/24 01:03:59;;;;;;;21.75;13.10;;;;;;;7.04;87.32;98230.61;1708341;83;20998;-83
2022/10/24 01:06:50;;;;;;;20.15;12.73;;;;;;;7.02;87.58;98235.90;1708445;84;21009;-83
2022/10/24 01:09:46;;;;;;;20.35;12.00;;;;;;;7.03;87.67;98230.20;1708404;84;20979;-84
2022/10/24 01:12:27;;;;;;;20.30;11.78;;;;;;;7.00;87.59;98240.33;1691060;83;21009;-83
2022/10/24 01:15:14;;;;;;;17.55;11.53;;;;;;;7.02;87.45;98235.05;1709245;82;21072;-83
2022/10/24 01:17:55;;;;;;;21.20;12.70;;;;;;;7.02;87.19;98239.85;1662685;85;21012;-84
2022/10/24 01:20:50;;;;;;;19.98;12.25;;;;;;;7.05;87.35;98232.39;1678663;84;21422;-84
2022/10/24 01:23:34;;;;;;;21.50;11.80;;;;;;;7.06;87.34;98239.39;1707883;83;21016;-84
2022/10/24 01:26:39;;;;;;;25.65;12.88;;;;;;;7.05;87.41;98230.60;1691567;83;21025;-84
2022/10/24 01:29:41;;;;;;;21.85;12.70;;;;;;;7.05;87.15;98241.14;1705602;82;20989;-83
2022/10/24 01:32:37;;;;;;;20.95;13.15;;;;;;;7.02;87.34;98233.73;1686860;83;21440;-83
2022/10/24 01:35:42;;;;;;;23.77;13.25;;;;;;;6.95;86.89;98230.28;1688729;84;21475;-84
2022/10/24 01:38:20;;;;;;;23.45;13.70;;;;;;;6.91;87.25;98237.79;1704496;82;21009;-83
2022/10/24 01:40:52;;;;;;;23.30;13.62;;;;;;;6.87;87.60;98230.38;1693222;84;21023;-84
2022/10/24 01:43:29;;;;;;;23.75;13.25;;;;;;;6.84;87.30;98240.93;1705027;83;21018;-83
2022/10/24 01:46:01;;;;;;;24.15;13.72;;;;;;;6.85;87.45;98238.75;1708794;82;21002;-83
2022/10/24 01:48:32;;;;;;;22.22;13.15;;;;;;;6.83;87.41;98237.44;1708862;82;21437;-83
2022/10/24 01:51:02;;;;;;;21.35;12.90;;;;;;;6.83;87.43;98229.54;1709162;84;20999;-85
2022/10/24 01:53:30;;;;;;;19.98;12.18;;;;;;;6.85;87.42;98230.84;1686873;83;21463;-84
2022/10/24 01:55:58;;;;;;;21.55;12.47;;;;;;;6.90;87.55;98229.47;1708740;84;20974;-84
2022/10/24 01:58:25;;;;;;;22.05;13.75;;;;;;;6.93;87.57;98224.17;1688103;82;21043;-84
2022/10/24 02:00:57;;;;;;;18.82;11.78;;;;;;;6.94;87.56;98222.81;1708846;84;21001;-84
2022/10/24 02:03:35;;;;;;;19.20;11.90;;;;;;;6.93;87.48;98227.66;1708932;84;21009;-84
2022/10/24 02:06:12;;;;;;;24.72;11.15;;;;;;;6.94;87.67;98224.59;1708933;83;21016;-85
2022/10/24 02:08:43;;;;;;;18.02;10.90;;;;;;;6.96;87.78;98224.12;1708702;83;21017;-83
2022/10/24 02:11:10;;;;;;;18.40;11.05;;;;;;;6.95;87.63;98220.62;1708851;84;21010;-83
2022/10/24 02:14:06;;;;;;;18.45;11.57;;;;;;;6.96;87.63;98232.02;1708721;83;20989;-83
2022/10/24 02:16:34;;;;;;;20.95;12.28;;;;;;;6.91;87.82;98213.64;1699512;83;21001;-83
2022/10/24 02:19:01;;;;;;;19.95;12.53;;;;;;;6.89;87.75;98223.31;1708712;83;21057;-83
2022/10/24 02:22:06;;;;;;;23.85;12.43;;;;;;;6.92;87.78;98221.09;1708753;83;21049;-83
2022/10/24 02:24:50;;;;;;;23.92;12.60;;;;;;;6.92;87.99;98218.45;1708071;83;21021;-82
2022/10/24 02:27:25;;;;;;;19.90;12.60;;;;;;;6.94;87.37;98226.77;1671868;84;21477;-82
2022/10/24 02:30:08;;;;;;;20.80;11.97;;;;;;;6.97;87.88;98232.02;1690266;83;21005;-83
2022/10/24 02:32:39;;;;;;;19.82;11.90;;;;;;;7.00;87.85;98216.17;1677123;82;21436;-83
2022/10/24 02:35:09;;;;;;;17.80;10.30;;;;;;;7.06;88.02;98211.72;1720885;81;20980;-83
2022/10/24 02:37:43;;;;;;;18.95;11.97;;;;;;;7.11;87.91;98210.75;1720645;82;21040;-82
2022/10/24 02:40:13;;;;;;;17.45;10.70;;;;;;;7.19;87.65;98216.40;1721536;82;21008;-82
2022/10/24 02:42:42;;;;;;;20.30;12.15;;;;;;;7.26;87.80;98222.00;1721243;82;21056;-82
2022/10/24 02:45:12;;;;;;;16.25;10.53;;;;;;;7.34;88.24;98219.27;1720564;82;21004;-83
2022/10/24 02:47:42;;;;;;;19.85;12.35;;;;;;;7.44;88.39;98220.92;1719003;81;21462;-82
2022/10/24 02:50:09;;;;;;;16.60;10.38;;;;;;;7.48;87.94;98221.75;1721509;81;21439;-82
2022/10/24 02:52:38;;;;;;;16.67;10.90;;;;;;;7.49;87.62;98216.45;1721279;82;21033;-84
2022/10/24 02:55:06;;;;;;;16.42;10.55;;;;;;;7.54;87.70;98211.11;1721031;82;21037;-84
2022/10/24 02:57:33;;;;;;;19.42;11.45;;;;;;;7.61;87.98;98211.89;1718437;82;21036;-84
2022/10/24 02:59:59;;;;;;;16.87;10.55;;;;;;;7.68;87.84;98213.53;1721342;82;21025;-84
2022/10/24 03:02:26;;;;;;;16.75;10.03;;;;;;;7.78;88.14;98210.33;1721287;82;20989;-84
2022/10/24 03:04:52;;;;;;;17.00;11.25;;;;;;;7.90;88.34;98208.81;1721365;82;21024;-85
2022/10/24 03:07:19;;;;;;;18.07;11.63;;;;;;;7.98;87.71;98215.76;1721375;82;20965;-84
2022/10/24 03:09:46;;;;;;;19.15;11.45;;;;;;;7.98;87.64;98207.41;1721397;82;21036;-84
2022/10/24 03:12:16;;;;;;;18.85;11.65;;;;;;;7.98;87.70;98210.48;1721312;82;20984;-84
2022/10/24 03:14:44;;;;;;;19.05;12.40;;;;;;;7.97;87.39;98204.31;1720512;82;21005;-82
2022/10/24 03:17:10;;;;;;;20.02;11.78;;;;;;;8.02;87.81;98209.07;1721351;82;20988;-83
2022/10/24 03:19:37;;;;;;;21.62;11.97;;;;;;;8.02;87.26;98201.16;1723627;82;20996;-83
2022/10/24 03:22:04;;;;;;;21.27;12.80;;;;;;;8.04;87.54;98211.69;1722973;82;21004;-83
2022/10/24 03:24:30;;;;;;;28.47;14.70;;;;;;;8.04;87.52;98216.97;1721930;82;21072;-83
2022/10/24 03:26:57;;;;;;;27.17;15.15;;;;;;;8.03;87.56;98220.52;1721519;81;21044;-83
2022/10/24 03:29:24;;;;;;;29.55;15.83;;;;;;;7.98;86.84;98215.33;1701342;82;20968;-83
2022/10/24 03:31:50;;;;;;;26.27;13.62;;;;;;;7.98;87.39;98214.44;1718175;82;21066;-83
2022/10/24 03:34:17;;;;;;;25.88;14.50;;;;;;;8.01;87.47;98212.61;1720279;81;21056;-83
2022/10/24 03:36:44;;;;;;;25.88;13.68;;;;;;;8.02;87.55;98209.54;1721122;83;20996;-83
2022/10/24 03:39:10;;;;;;;28.35;15.05;;;;;;;8.03;87.38;98207.31;1721287;82;21004;-83
2022/10/24 03:41:37;;;;;;;25.40;14.13;;;;;;;8.02;87.54;98205.11;1720485;82;21498;-83
2022/10/24 03:44:04;;;;;;;30.10;15.65;;;;;;;8.03;87.64;98208.20;1721164;82;20992;-85
2022/10/24 03:46:31;;;;;;;28.27;16.32;;;;;;;8.04;87.58;98211.26;1721248;83;21446;-84
2022/10/24 03:48:57;;;;;;;26.23;16.20;;;;;;;8.03;87.52;98211.27;1721241;82;21096;-84
2022/10/24 03:51:24;;;;;;;28.95;15.75;;;;;;;8.03;87.71;98212.16;1720283;81;21006;-84
2022/10/24 03:53:51;;;;;;;31.00;16.70;;;;;;;8.02;87.72;98205.11;1721377;83;21471;-83
2022/10/24 03:56:18;;;;;;;31.23;16.07;;;;;;;8.04;87.34;98205.98;1721618;82;20981;-85
2022/10/24 03:58:44;;;;;;;28.35;15.68;;;;;;;8.02;87.35;98202.47;1721170;82;21032;-85
2022/10/24 04:01:16;;;;;;;27.42;16.42;;;;;;;8.03;87.49;98202.04;1718037;81;21029;-83
2022/10/24 04:03:40;;;;;;;30.25;16.77;;;;;;;8.05;87.74;98210.36;1720479;82;20997;-82
2022/10/24 04:06:07;;;;;;;32.58;16.30;;;;;;;8.05;87.85;98204.19;1721326;82;21039;-83
2022/10/24 04:08:34;;;;;;;36.33;18.85;;;;;;;8.06;87.57;98200.68;1721027;82;21072;-83
2022/10/24 04:11:00;;;;;;;33.90;17.92;;;;;;;8.07;87.94;98199.78;1718490;82;21410;-82
2022/10/24 04:13:27;;;;;;;35.30;18.80;;;;;;;8.04;88.24;98200.70;1719857;82;21025;-82
2022/10/24 04:15:53;;;;;;;41.60;20.02;;;;;;;8.06;88.25;98200.68;1721385;82;20985;-83
2022/10/24 04:18:20;;;;;;;40.45;20.82;;;;;;;8.04;88.33;98202.45;1721408;82;21312;-83
2022/10/24 04:20:46;;;;;;;43.52;20.25;;;;;;;8.04;88.35;98207.73;1718950;82;21052;-82
2022/10/24 04:23:13;;;;;;;48.42;23.70;;;;;;;8.08;88.93;98208.55;1720405;82;21056;-82
2022/10/24 04:25:40;;;;;;;47.20;22.52;;;;;;;8.09;89.44;98203.72;1721445;82;21016;-83
2022/10/24 04:28:07;;;;;;;49.80;23.40;;;;;;;8.09;89.18;98200.61;1721273;82;21492;-83
2022/10/24 04:30:33;;;;;;;44.50;21.50;;;;;;;8.11;88.76;98200.59;1721064;81;21000;-83
2022/10/24 04:33:00;;;;;;;44.45;22.55;;;;;;;8.11;88.88;98207.19;1700837;81;21049;-83
2022/10/24 04:35:27;;;;;;;47.38;23.77;;;;;;;8.11;89.15;98201.91;1721610;81;20984;-83
2022/10/24 04:37:55;;;;;;;50.73;24.25;;;;;;;8.13;89.32;98198.78;1721394;82;21431;-83
2022/10/24 04:40:22;;;;;;;44.95;22.82;;;;;;;8.15;89.23;98203.14;1719347;82;21021;-83
2022/10/24 04:42:48;;;;;;;40.23;19.73;;;;;;;8.13;88.97;98198.78;1719100;82;21499;-83
2022/10/24 04:45:15;;;;;;;33.73;15.23;;;;;;;8.10;88.73;98207.63;1720903;82;20976;-83
2022/10/24 04:47:42;;;;;;;29.75;16.20;;;;;;;8.02;88.27;98202.47;1721130;82;21076;-83
2022/10/24 04:50:09;;;;;;;34.83;14.33;;;;;;;7.99;88.15;98209.58;1720092;82;21403;-83
2022/10/24 04:52:35;;;;;;;29.40;13.45;;;;;;;7.98;88.43;98214.00;1718633;83;20980;-83
2022/10/24 04:55:03;;;;;;;25.00;13.18;;;;;;;7.95;88.24;98211.40;1721347;83;21048;-83
2022/10/24 04:57:29;;;;;;;30.92;14.33;;;;;;;7.93;88.06;98201.30;1720797;82;20981;-82
2022/10/24 04:59:56;;;;;;;33.18;14.33;;;;;;;7.93;88.40;98207.45;1720797;82;21455;-83
2022/10/24 05:02:22;;;;;;;30.37;14.38;;;;;;;7.95;88.36;98207.44;1717574;82;21092;-83
2022/10/24 05:04:48;;;;;;;26.97;14.58;;;;;;;7.95;88.60;98211.83;1721435;82;21004;-83
2022/10/24 05:07:15;;;;;;;29.87;14.10;;;;;;;7.96;88.58;98201.26;1721330;82;20977;-83
2022/10/24 05:09:41;;;;;;;33.75;15.60;;;;;;;8.02;89.08;98188.42;1721348;82;21031;-83
2022/10/24 05:12:08;;;;;;;30.55;14.63;;;;;;;8.08;88.79;98196.23;1720968;82;21394;-83
2022/10/24 05:14:35;;;;;;;33.13;15.63;;;;;;;8.14;88.79;98202.72;1721429;82;20949;-83
2022/10/24 05:17:01;;;;;;;29.90;13.90;;;;;;;8.18;88.83;98207.06;1721329;82;21607;-83
2022/10/24 05:19:28;;;;;;;30.50;16.52;;;;;;;8.27;88.84;98199.89;1721407;83;20981;-83
2022/10/24 05:21:54;;;;;;;33.40;15.78;;;;;;;8.30;88.76;98192.78;1720360;81;21382;-83
2022/10/24 05:24:22;;;;;;;30.77;15.60;;;;;;;8.33;88.72;98191.86;1721256;82;21057;-82
2022/10/24 05:26:49;;;;;;;34.50;16.12;;;;;;;8.37;88.48;98193.99;1721486;82;21000;-82
2022/10/24 05:29:15;;;;;;;31.65;15.55;;;;;;;8.35;88.51;98211.18;1721387;81;21028;-82
2022/10/24 05:31:42;;;;;;;32.33;15.80;;;;;;;8.35;88.54;98212.50;1714786;82;21101;-82
2022/10/24 05:34:08;;;;;;;39.30;18.55;;;;;;;8.30;88.51;98210.38;1711005;82;21486;-82
2022/10/24 05:36:35;;;;;;;35.95;16.37;;;;;;;8.32;88.74;98205.50;1721075;82;20997;-82
2022/10/24 05:39:02;;;;;;;35.10;14.93;;;;;;;8.36;88.61;98191.82;1721154;82;20982;-83
2022/10/24 05:41:28;;;;;;;38.85;18.15;;;;;;;8.35;88.20;98195.80;1723766;81;21045;-85
2022/10/24 05:43:55;;;;;;;37.15;19.50;;;;;;;8.35;88.11;98200.62;1715178;82;21021;-85
2022/10/24 05:46:21;;;;;;;39.42;20.23;;;;;;;8.34;89.08;98205.48;1714393;82;21072;-84
2022/10/24 05:48:48;;;;;;;37.15;18.50;;;;;;;8.36;88.53;98209.42;1689946;84;21002;-85
2022/10/24 05:51:15;;;;;;;45.15;21.68;;;;;;;8.39;88.92;98211.55;1741291;82;20961;-85
2022/10/24 05:53:41;;;;;;;56.58;25.02;;;;;;;8.40;88.89;98208.48;1742233;82;21044;-85
2022/10/24 05:56:09;;;;;;;48.78;22.45;;;;;;;8.39;88.81;98215.98;1752340;82;20933;-84
2022/10/24 05:58:36;;;;;;;49.85;23.62;;;;;;;8.31;89.21;98218.28;1746637;82;21430;-84
2022/10/24 06:01:03;;;;;;;52.00;24.30;;;;;;;8.34;88.95;98225.28;1733572;81;20977;-83
2022/10/24 06:03:30;;;;;;;58.40;26.55;;;;;;;8.36;88.99;98230.11;1734132;81;21063;-82
2022/10/24 06:05:57;;;;;;;59.98;25.20;;;;;;;8.34;89.22;98229.25;1730480;82;21035;-81
2022/10/24 06:08:23;;;;;;;57.10;25.30;;;;;;;8.25;89.14;98238.64;1714922;82;20998;-82
2022/10/24 06:10:51;;;;;;;55.63;24.72;;;;;;;8.27;89.13;98228.94;1732663;82;20976;-83
2022/10/24 06:13:17;;;;;;;49.73;23.98;;;;;;;8.28;89.07;98239.92;1726475;82;21029;-83
2022/10/24 06:15:44;;;;;;;49.58;22.15;;;;;;;8.29;89.36;98236.38;1726454;82;20976;-83
2022/10/24 06:18:11;;;;;;;52.43;23.85;;;;;;;8.32;89.69;98229.73;1720982;82;20960;-83
2022/10/24 06:20:37;;;;;;;46.70;22.15;;;;;;;8.33;89.42;98243.36;1722935;82;21497;-84
2022/10/24 06:23:04;;;;;;;43.80;21.65;;;;;;;8.35;89.55;98251.26;1725311;82;20989;-83
2022/10/24 06:25:30;;;;;;;38.40;20.50;;;;;;;8.33;89.63;98244.67;1727771;82;21016;-83
2022/10/24 06:27:57;;;;;;;46.55;21.93;;;;;;;8.29;89.93;98241.22;1726211;82;20981;-84
2022/10/24 06:30:23;;;;;;;47.73;22.58;;;;;;;8.31;89.38;98243.38;1720986;81;20989;-83
2022/10/24 06:32:50;;;;;;;48.33;23.38;;;;;;;8.35;89.85;98236.27;1727315;82;21036;-84
2022/10/24 06:35:18;;;;;;;54.18;23.00;;;;;;;8.40;89.78;98230.92;1720048;81;21440;-84
2022/10/24 06:37:45;;;;;;;54.53;22.58;;;;;;;8.41;89.40;98237.51;1722688;81;21399;-84
2022/10/24 06:40:12;;;;;;;47.85;23.05;;;;;;;8.45;89.83;98249.77;1728430;82;21032;-84
2022/10/24 06:42:38;;;;;;;53.20;26.10;;;;;;;8.53;89.73;98247.03;1727880;82;21523;-83
2022/10/24 06:45:07;;;;;;;57.73;25.08;;;;;;;8.57;89.79;98243.88;1736180;82;20942;-84
2022/10/24 06:47:33;;;;;;;47.93;23.22;;;;;;;8.63;90.67;98244.23;1724113;82;21033;-85
2022/10/24 06:49:59;;;;;;;46.90;23.95;;;;;;;8.66;90.28;98238.44;1722944;82;21024;-84
2022/10/24 06:52:26;;;;;;;59.15;25.55;;;;;;;8.69;89.80;98234.39;1723666;82;20976;-84
2022/10/24 06:54:54;;;;;;;51.15;24.98;;;;;;;8.71;90.29;98240.54;1723372;82;21402;-84
2022/10/24 06:57:21;;;;;;;51.88;26.25;;;;;;;8.76;90.25;98238.27;1727876;82;21570;-84
2022/10/24 06:59:48;;;;;;;43.60;20.50;;;;;;;8.78;90.34;98244.38;1723351;82;21059;-84
2022/10/24 07:02:16;;;;;;;46.53;22.82;;;;;;;8.83;89.97;98252.66;1730484;82;20921;-83
2022/10/24 07:04:43;;;;;;;48.35;24.12;;;;;;;8.90;90.10;98245.93;1721690;82;21071;-83
2022/10/24 07:07:18;;;;;;;54.83;26.68;;;;;;;8.96;89.87;98239.20;1712114;82;21394;-83
2022/10/24 07:09:53;;;;;;;50.95;23.40;;;;;;;9.03;89.61;98250.53;1711449;82;20966;-83
2022/10/24 07:12:21;;;;;;;62.45;25.92;;;;;;;9.11;89.74;98250.80;1711558;81;21335;-84
2022/10/24 07:14:48;;;;;;;47.83;23.35;;;;;;;9.18;89.71;98250.22;1716291;82;21439;-84
2022/10/24 07:17:16;;;;;;;42.45;20.77;;;;;;;9.24;89.73;98254.53;1728990;82;21298;-84
2022/10/24 07:19:43;;;;;;;43.25;23.02;;;;;;;9.31;89.50;98253.96;1722621;82;21005;-86
2022/10/24 07:22:09;;;;;;;55.63;25.12;;;;;;;9.38;89.59;98260.42;1724424;82;20976;-84
2022/10/24 07:24:37;;;;;;;54.18;24.75;;;;;;;9.45;89.60;98265.58;1724188;82;20984;-84
2022/10/24 07:27:03;;;;;;;51.18;23.20;;;;;;;9.51;89.80;98265.00;1722673;82;21029;-83
2022/10/24 07:29:31;;;;;;;40.60;19.23;;;;;;;9.62;89.75;98266.54;1721380;82;21740;-82
2022/10/24 07:31:58;;;;;;;43.55;21.40;;;;;;;9.71;89.59;98271.64;1722885;82;21049;-81
2022/10/24 07:34:24;;;;;;;38.45;20.08;;;;;;;9.75;89.07;98273.32;1723752;82;21009;-80
2022/10/24 07:36:51;;;;;;;40.25;20.12;;;;;;;9.80;89.10;98273.67;1726850;82;21044;-80
2022/10/24 07:39:17;;;;;;;46.02;21.65;;;;;;;9.87;89.01;98259.38;1731418;82;20982;-80
2022/10/24 07:41:44;;;;;;;42.85;22.02;;;;;;;9.90;88.81;98252.70;1731116;82;21371;-82
2022/10/24 07:44:10;;;;;;;55.83;24.43;;;;;;;9.97;88.69;98249.47;1724154;82;21013;-82
2022/10/24 07:46:41;;;;;;;52.30;26.60;;;;;;;10.04;88.46;98241.79;1726678;82;20984;-82
2022/10/24 07:49:08;;;;;;;59.65;26.97;;;;;;;10.05;88.41;98232.94;1723105;82;21013;-82
2022/10/24 07:51:35;;;;;;;52.80;26.12;;;;;;;10.01;87.92;98235.27;1726829;82;21443;-82
2022/10/24 07:54:01;;;;;;;49.30;24.25;;;;;;;10.01;88.21;98241.88;1722261;82;21032;-82
2022/10/24 07:56:28;;;;;;;48.87;23.05;;;;;;;10.04;88.32;98241.79;1722517;82;21446;-82
2022/10/24 07:58:59;;;;;;;55.67;26.30;;;;;;;10.06;88.20;98245.73;1720776;82;20989;-82
2022/10/24 08:01:28;;;;;;;53.52;26.02;;;;;;;10.03;87.98;98246.67;1723554;82;21008;-82
2022/10/24 08:03:56;;;;;;;52.83;26.60;;;;;;;10.00;87.76;98255.56;1723118;82;21045;-82
2022/10/24 08:06:29;;;;;;;53.60;25.68;;;;;;;10.03;87.82;98250.20;1724737;82;21015;-83
2022/10/24 08:08:56;;;;;;;47.80;24.33;;;;;;;10.04;88.10;98255.91;1696005;83;20955;-83
2022/10/24 08:11:26;;;;;;;50.50;24.57;;;;;;;10.08;88.17;98247.91;1669804;85;21061;-83
2022/10/24 08:13:56;;;;;;;47.23;24.77;;;;;;;10.10;87.96;98245.64;1698374;84;20977;-83
2022/10/24 08:16:24;;;;;;;52.90;25.27;;;;;;;10.09;88.33;98236.41;1697204;84;21045;-83
2022/10/24 08:18:54;;;;;;;44.60;23.30;;;;;;;10.08;88.37;98236.84;1702155;83;20986;-83
2022/10/24 08:21:23;;;;;;;47.62;24.07;;;;;;;10.07;88.29;98243.05;1681609;84;21016;-83
2022/10/24 08:23:53;;;;;;;50.50;24.67;;;;;;;10.03;88.43;98242.27;1705128;82;21053;-83
2022/10/24 08:26:24;;;;;;;45.30;24.40;;;;;;;10.04;87.90;98239.14;1705565;82;21166;-83
2022/10/24 08:28:54;;;;;;;46.85;25.35;;;;;;;9.99;88.38;98241.91;1703046;83;20966;-80
2022/10/24 08:31:24;;;;;;;47.50;24.32;;;;;;;10.01;88.47;98236.11;1705024;83;21035;-79
2022/10/24 08:33:53;;;;;;;51.70;25.45;;;;;;;9.98;88.41;98233.56;1706316;83;21399;-81
2022/10/24 08:36:32;;;;;;;51.55;25.60;;;;;;;9.92;88.30;98232.35;1708348;83;21030;-82
2022/10/24 08:39:00;;;;;;;51.35;25.35;;;;;;;9.85;88.48;98223.67;1708065;83;21018;-81
2022/10/24 08:41:38;;;;;;;48.58;24.57;;;;;;;9.89;88.89;98219.20;1737558;81;20980;-81
2022/10/24 08:44:28;;;;;;;47.08;25.23;;;;;;;9.96;89.16;98217.29;1713309;82;20997;-80
2022/10/24 08:47:02;;;;;;;53.40;26.40;;;;;;;10.01;89.39;98218.05;1720037;82;20965;-82
2022/10/24 08:49:49;;;;;;;52.85;25.02;;;;;;;10.05;89.29;98209.09;1726914;82;20941;-83
2022/10/24 08:52:33;;;;;;;52.73;25.60;;;;;;;10.12;88.80;98203.20;1728154;81;21027;-80
2022/10/24 08:55:16;;;;;;;55.05;25.92;;;;;;;10.21;88.82;98198.16;1695148;84;21548;-80
2022/10/24 08:57:48;;;;;;;48.52;24.55;;;;;;;10.28;88.81;98203.27;1690895;84;21004;-80
2022/10/24 09:00:23;;;;;;;46.33;25.23;;;;;;;10.30;88.58;98203.23;1684986;83;21012;-81
2022/10/24 09:03:04;;;;;;;43.30;22.13;;;;;;;10.37;88.94;98209.22;1690035;83;21004;-81
2022/10/24 09:05:37;;;;;;;46.88;22.98;;;;;;;10.42;88.76;98204.67;1704854;83;21045;-81
2022/10/24 09:08:27;;;;;;;42.43;22.62;;;;;;;10.48;88.63;98202.36;1701302;83;21049;-80
2022/10/24 09:11:03;;;;;;;41.35;21.50;;;;;;;10.55;88.84;98203.48;1703226;84;21016;-77
2022/10/24 09:13:34;;;;;;;35.03;19.77;;;;;;;10.64;88.55;98205.05;1705233;83;21029;-77
2022/10/24 09:16:02;;;;;;;37.08;20.68;;;;;;;10.71;88.32;98205.72;1714914;83;21029;-82
2022/10/24 09:18:34;;;;;;;34.58;19.30;;;;;;;10.78;88.34;98211.30;1709741;83;21423;-80
2022/10/24 09:21:02;;;;;;;31.02;18.92;;;;;;;10.85;88.04;98208.47;1703119;84;20989;-80
2022/10/24 09:23:32;;;;;;;34.18;18.45;;;;;;;10.94;88.24;98209.09;1711896;82;20969;-81
2022/10/24 09:25:59;;;;;;;29.18;17.55;;;;;;;11.06;88.49;98210.98;1724448;82;21522;-80
2022/10/24 09:28:25;;;;;;;28.17;16.57;;;;;;;11.21;88.13;98212.31;1721518;82;21534;-80
2022/10/24 09:30:52;;;;;;;25.40;16.30;;;;;;;11.26;87.66;98218.39;1721938;82;20992;-80
2022/10/24 09:33:34;;;;;;;23.87;14.93;;;;;;;11.32;87.26;98222.63;1721428;82;21013;-81
2022/10/24 09:36:04;;;;;;;26.05;15.65;;;;;;;11.37;87.12;98222.52;1720193;82;21117;-77
2022/10/24 09:38:35;;;;;;;24.47;16.25;;;;;;;11.41;86.99;98218.86;1718674;83;21048;-76
2022/10/24 09:41:07;;;;;;;24.90;15.85;;;;;;;11.44;87.09;98223.61;1717673;82;21065;-75
2022/10/24 09:43:54;;;;;;;28.42;16.82;;;;;;;11.56;87.27;98225.03;1700734;82;21423;-75
2022/10/24 09:46:44;;;;;;;27.80;16.30;;;;;;;11.73;87.30;98219.66;1720835;82;20981;-75
2022/10/24 09:49:17;;;;;;;23.60;16.12;;;;;;;11.87;87.02;98223.20;1718316;82;21057;-74
2022/10/24 09:51:49;;;;;;;24.45;16.40;;;;;;;11.94;86.69;98218.13;1720670;82;20993;-77
2022/10/24 09:54:25;;;;;;;26.95;15.95;;;;;;;12.01;86.58;98209.03;1730525;82;20969;-76
2022/10/24 09:57:07;;;;;;;23.67;15.48;;;;;;;12.14;86.01;98200.23;1738712;82;21481;-76
2022/10/24 09:59:47;;;;;;;22.13;14.25;;;;;;;12.22;85.77;98201.78;1695153;83;21073;-76
2022/10/24 10:02:24;;;;;;;23.65;13.95;;;;;;;12.30;85.36;98193.55;1733700;82;20926;-76
2022/10/24 10:05:17;;;;;;;23.10;14.28;;;;;;;12.32;85.01;98187.27;1715656;82;21030;-77
2022/10/24 10:07:47;;;;;;;24.80;14.35;;;;;;;12.41;85.16;98178.10;1711039;83;20996;-77
2022/10/24 10:10:27;;;;;;;27.00;16.80;;;;;;;12.50;84.85;98177.80;1712687;83;20962;-76
2022/10/24 10:12:59;;;;;;;27.52;18.50;;;;;;;12.57;83.96;98168.30;1707817;83;20985;-77
2022/10/24 10:15:46;;;;;;;23.70;17.00;;;;;;;12.60;83.64;98171.70;1705915;82;20981;-79
2022/10/24 10:18:39;;;;;;;26.48;17.20;;;;;;;12.71;83.65;98164.66;1734934;82;21029;-77
2022/10/24 10:21:16;;;;;;;26.93;16.85;;;;;;;12.68;81.16;98164.31;1702590;83;20996;-78
2022/10/24 10:23:53;;;;;;;26.40;16.85;;;;;;;12.72;82.61;98166.42;1681940;84;21036;-78
2022/10/24 10:26:31;;;;;;;27.62;17.62;;;;;;;12.91;82.61;98163.08;1703883;84;21008;-78
2022/10/24 10:29:18;;;;;;;22.22;14.83;;;;;;;13.15;82.69;98159.98;1701478;83;21007;-78
2022/10/24 10:32:10;;;;;;;19.42;14.45;;;;;;;13.37;82.12;98163.63;1685262;84;20967;-78
2022/10/24 10:34:45;;;;;;;20.45;14.75;;;;;;;13.58;80.83;98153.50;1704450;83;21601;-77
2022/10/24 10:37:26;;;;;;;21.73;14.98;;;;;;;13.66;80.86;98149.20;1704463;84;21015;-77
2022/10/24 10:40:35;;;;;;;21.45;14.93;;;;;;;13.86;78.04;98140.87;1706072;83;21073;-77
2022/10/24 10:43:16;;;;;;;19.57;14.53;;;;;;;14.05;79.14;98140.13;1705500;83;21065;-77
2022/10/24 10:46:07;;;;;;;18.50;14.05;;;;;;;14.40;79.13;98132.43;1697969;84;20998;-77
2022/10/24 10:48:48;;;;;;;16.95;13.70;;;;;;;14.93;77.55;98122.16;1705958;83;21042;-77
2022/10/24 10:51:32;;;;;;;18.55;12.75;;;;;;;16.08;76.83;98114.08;1721423;82;21065;-78
2022/10/24 10:54:20;;;;;;;18.37;12.33;;;;;;;17.06;76.28;98109.53;1686091;85;21469;-76
2022/10/24 10:57:16;;;;;;;17.10;13.05;;;;;;;18.15;71.26;98096.76;1706801;82;21045;-76
2022/10/24 11:00:06;;;;;;;17.40;12.30;;;;;;;19.02;68.69;98093.84;1723645;82;21051;-76
2022/10/24 11:02:56;;;;;;;17.23;12.60;;;;;;;19.64;62.33;98084.56;1705969;82;21029;-78
2022/10/24 11:05:47;;;;;;;14.68;12.40;;;;;;;20.13;62.22;98076.88;1723418;81;21426;-77
2022/10/24 11:09:08;;;;;;;15.20;11.90;;;;;;;20.69;61.85;98076.62;1715453;81;21048;-78
2022/10/24 11:11:40;;;;;;;14.75;12.07;;;;;;;21.10;58.52;98076.55;1713827;82;20970;-78
2022/10/24 11:14:56;;;;;;;15.20;11.80;;;;;;;21.86;59.18;98059.39;1722085;82;21019;-78
2022/10/24 11:17:31;;;;;;;14.95;11.63;;;;;;;22.56;58.33;98056.83;1721218;82;21050;-80
2022/10/24 11:20:06;;;;;;;14.45;11.40;;;;;;;23.20;56.73;98045.92;1721805;82;21036;-79
2022/10/24 11:22:41;;;;;;;18.60;12.20;;;;;;;23.20;51.80;98035.11;1721615;82;20997;-79
2022/10/24 11:25:31;;;;;;;17.52;12.95;;;;;;;23.11;52.19;98031.80;1720382;82;21060;-77
2022/10/24 11:28:22;;;;;;;15.08;11.80;;;;;;;22.51;52.46;98027.95;1671502;82;21005;-78
2022/10/24 11:30:59;;;;;;;14.80;12.07;;;;;;;22.48;52.36;98026.34;1722007;81;21011;-77
2022/10/24 11:34:00;;;;;;;15.00;11.78;;;;;;;22.40;51.54;98024.25;1703098;82;21407;-78
2022/10/24 11:36:41;;;;;;;14.68;12.23;;;;;;;22.20;53.15;98027.14;1726906;81;21021;-78
2022/10/24 11:39:36;;;;;;;14.95;12.50;;;;;;;22.11;53.47;98021.09;1731686;82;21033;-79
2022/10/24 11:42:35;;;;;;;13.28;11.78;;;;;;;22.26;53.79;98017.72;1727048;82;21021;-76
2022/10/24 11:45:21;;;;;;;16.30;11.78;;;;;;;22.02;52.53;98018.12;1717074;81;21059;-76
2022/10/24 11:48:31;;;;;;;14.10;11.35;;;;;;;21.73;53.03;98013.61;1714847;81;21000;-73